Detroit, Michigan
Traffic Map
Current Weather Conditions
Detroit, Michigan
Overcast
Overcast
14°
Feels Like: 14°
Wind Chill: 14° Ceiling: 4000
Heat Index: 14° Visibility: 10mi
Dew Point: 10° Wind: 7mph
Humidity: 77% Direction: 210° (SSW)
Pressure: 29.87in Gusts: 0mph
Raw Report DataCYQG 272300Z 21006KT 10SM BKN040 OVC140 14/10 A2987 RMK SC6AS2 SLP119
Traffic Incident Summary
Active as of:
Severity:
Category:
InformationThere was an issue retrieving the traffic information for this location. Please try a different location or try again shortly.
Advertisements
Track Severe Weather on mobile